createdAt,value
2023-04-09T00:00:35.455Z,72.26
2023-04-09T00:03:08.331Z,72.70
2023-04-09T00:05:41.409Z,72.49
2023-04-09T00:08:14.134Z,72.34
2023-04-09T00:10:46.841Z,72.23
2023-04-09T00:13:28.242Z,72.38
2023-04-09T00:16:10.324Z,72.73
2023-04-09T00:18:43.058Z,72.98
2023-04-09T00:21:16.268Z,72.91
2023-04-09T00:23:49.174Z,72.59
2023-04-09T00:26:22.341Z,72.66
2023-04-09T00:28:55.350Z,72.63
2023-04-09T00:31:29.388Z,72.96
2023-04-09T00:34:02.271Z,73.37
2023-04-09T00:36:34.934Z,73.06
2023-04-09T00:39:07.596Z,73.41
2023-04-09T00:41:40.223Z,72.71
2023-04-09T00:44:12.909Z,72.78
2023-04-09T00:46:47.175Z,73.23
2023-04-09T00:49:19.974Z,72.94
2023-04-09T00:51:52.639Z,72.95
2023-04-09T00:54:25.386Z,72.99
2023-04-09T00:56:58.488Z,73.04
2023-04-09T00:59:31.445Z,72.74
2023-04-09T01:02:05.619Z,73.11
2023-04-09T01:04:39.405Z,73.47
2023-04-09T01:07:14.325Z,73.11
2023-04-09T01:09:52.446Z,73.10
2023-04-09T01:12:31.502Z,72.95
2023-04-09T01:15:06.260Z,73.31
2023-04-09T01:17:42.945Z,73.09
2023-04-09T01:20:18.877Z,72.89
2023-04-09T01:22:58.882Z,73.08
2023-04-09T01:25:39.247Z,72.62
2023-04-09T01:28:20.091Z,72.98
2023-04-09T01:30:54.926Z,72.53
2023-04-09T01:33:28.703Z,72.39
2023-04-09T01:36:01.874Z,72.68
2023-04-09T01:38:36.371Z,72.48
2023-04-09T01:41:10.404Z,72.69
2023-04-09T01:43:45.550Z,72.82
2023-04-09T01:46:18.971Z,72.72
2023-04-09T01:48:52.514Z,72.71
2023-04-09T01:51:26.659Z,73.40
2023-04-09T01:53:59.585Z,73.34
2023-04-09T01:56:41.441Z,73.37
2023-04-09T01:59:15.681Z,73.33
2023-04-09T02:01:49.431Z,73.25
2023-04-09T02:04:24.922Z,72.99
2023-04-09T02:07:00.162Z,72.68
2023-04-09T02:09:34.324Z,72.92
2023-04-09T02:12:08.185Z,72.14
2023-04-09T02:14:42.618Z,72.23
2023-04-09T02:17:15.553Z,72.08
2023-04-09T02:19:48.879Z,71.39
2023-04-09T02:22:21.714Z,71.33
2023-04-09T02:24:54.344Z,70.93
2023-04-09T02:27:27.036Z,70.62
2023-04-09T02:30:01.256Z,70.71
2023-04-09T02:32:34.113Z,70.33
2023-04-09T02:35:07.314Z,70.53
2023-04-09T02:37:39.989Z,70.87
2023-04-09T02:40:13.177Z,70.89
2023-04-09T02:42:45.860Z,70.46
2023-04-09T02:45:19.879Z,70.49
2023-04-09T02:47:52.746Z,71.12
2023-04-09T02:50:25.945Z,70.71
2023-04-09T02:52:59.294Z,70.90
2023-04-09T02:55:32.016Z,71.41
2023-04-09T02:58:04.665Z,71.06
2023-04-09T03:00:38.723Z,71.96
2023-04-09T03:03:11.705Z,71.98
2023-04-09T03:05:44.631Z,71.43
2023-04-09T03:08:17.611Z,71.25
2023-04-09T03:10:50.265Z,71.28
2023-04-09T03:13:22.947Z,71.36
2023-04-09T03:15:57.454Z,71.43
2023-04-09T03:18:30.212Z,72.04
2023-04-09T03:21:05.868Z,71.80
2023-04-09T03:23:38.541Z,72.01
2023-04-09T03:26:11.205Z,72.24
2023-04-09T03:28:43.952Z,72.72
2023-04-09T03:31:18.014Z,72.07
2023-04-09T03:33:50.871Z,72.18
2023-04-09T03:36:23.884Z,72.62
2023-04-09T03:38:56.653Z,73.35
2023-04-09T03:41:29.332Z,73.35
2023-04-09T03:44:01.987Z,74.10
2023-04-09T03:46:36.408Z,74.38
2023-04-09T03:49:09.164Z,74.66
2023-04-09T03:51:41.756Z,74.48
2023-04-09T03:54:14.573Z,74.78
2023-04-09T03:56:47.268Z,74.32
2023-04-09T03:59:19.984Z,74.13
2023-04-09T04:01:54.086Z,74.48
2023-04-09T04:04:27.030Z,74.08
2023-04-09T04:06:59.770Z,74.23
2023-04-09T04:09:32.402Z,74.34
2023-04-09T04:12:05.300Z,74.55
2023-04-09T04:14:38.146Z,74.39
2023-04-09T04:17:12.853Z,74.63
2023-04-09T04:19:45.996Z,74.33
2023-04-09T04:22:18.675Z,74.93
2023-04-09T04:24:51.369Z,74.57
2023-04-09T04:27:23.965Z,75.04
2023-04-09T04:29:58.933Z,74.92
2023-04-09T04:32:33.118Z,74.64
2023-04-09T04:35:06.168Z,74.53
2023-04-09T04:37:38.891Z,74.32
2023-04-09T04:40:11.956Z,74.13
2023-04-09T04:42:44.577Z,74.60
2023-04-09T04:45:17.277Z,74.25
2023-04-09T04:47:51.485Z,74.62
2023-04-09T04:50:24.309Z,74.55
2023-04-09T04:52:56.945Z,74.62
2023-04-09T04:55:29.683Z,75.34
2023-04-09T04:58:02.447Z,74.96
2023-04-09T05:00:35.303Z,75.63
2023-04-09T05:03:09.355Z,76.04
2023-04-09T05:05:42.278Z,76.18
2023-04-09T05:08:14.951Z,75.75
2023-04-09T05:10:47.609Z,76.15
2023-04-09T05:13:20.408Z,75.99
2023-04-09T05:15:53.173Z,76.13
2023-04-09T05:18:27.269Z,75.96
2023-04-09T05:20:59.930Z,75.78
2023-04-09T05:23:32.658Z,75.63
2023-04-09T05:26:05.584Z,75.57
2023-04-09T05:28:38.274Z,75.96
2023-04-09T05:31:13.396Z,75.05
2023-04-09T05:33:47.716Z,73.64
2023-04-09T05:36:20.678Z,74.78
2023-04-09T05:38:53.706Z,74.79
2023-04-09T05:41:26.584Z,74.47
2023-04-09T05:44:00.829Z,74.69
2023-04-09T05:46:33.764Z,74.49
2023-04-09T05:49:07.927Z,74.60
2023-04-09T05:51:40.936Z,73.12
2023-04-09T05:54:13.571Z,73.88
2023-04-09T05:56:46.427Z,73.66
2023-04-09T05:59:19.552Z,74.20
2023-04-09T06:01:52.276Z,74.69
2023-04-09T06:04:26.469Z,74.67
2023-04-09T06:07:00.620Z,74.83
2023-04-09T06:09:33.324Z,74.48
2023-04-09T06:12:06.310Z,74.58
2023-04-09T06:14:39.006Z,75.48
2023-04-09T06:17:11.713Z,76.09
2023-04-09T06:19:45.912Z,76.10
2023-04-09T06:22:18.578Z,75.19
2023-04-09T06:24:51.265Z,75.42
2023-04-09T06:27:24.012Z,75.32
2023-04-09T06:29:56.705Z,75.40
2023-04-09T06:32:29.774Z,71.79
2023-04-09T06:35:05.013Z,74.18
2023-04-09T06:37:37.750Z,74.59
2023-04-09T06:40:10.852Z,74.06
2023-04-09T06:42:43.611Z,75.45
2023-04-09T06:45:16.298Z,75.08
2023-04-09T06:47:49.369Z,75.59
2023-04-09T06:50:23.881Z,76.14
2023-04-09T06:52:56.685Z,76.28
2023-04-09T06:55:29.434Z,75.82
2023-04-09T06:58:02.817Z,75.49
2023-04-09T07:00:35.496Z,75.54
2023-04-09T07:03:09.431Z,75.83
2023-04-09T07:05:43.825Z,76.85
2023-04-09T07:08:16.734Z,77.04
2023-04-09T07:10:49.401Z,76.75
2023-04-09T07:13:22.152Z,74.86
2023-04-09T07:15:54.873Z,77.22
2023-04-09T07:18:27.926Z,77.32
2023-04-09T07:21:02.782Z,76.77
2023-04-09T07:23:37.434Z,76.50
2023-04-09T07:26:11.510Z,76.17
2023-04-09T07:28:44.357Z,76.29
2023-04-09T07:31:17.038Z,74.93
2023-04-09T07:33:49.678Z,75.16
2023-04-09T07:36:24.382Z,76.57
2023-04-09T07:38:57.142Z,75.60
2023-04-09T07:41:29.919Z,76.91
2023-04-09T07:44:03.704Z,76.86
2023-04-09T07:46:36.375Z,77.21
2023-04-09T07:49:09.035Z,76.83
2023-04-09T07:51:43.129Z,76.98
2023-04-09T07:54:15.936Z,74.15
2023-04-09T07:56:48.761Z,76.14
2023-04-09T07:59:21.446Z,77.16
2023-04-09T08:01:54.447Z,74.94
2023-04-09T08:04:27.511Z,75.01
2023-04-09T08:07:01.745Z,74.54
2023-04-09T08:09:34.477Z,75.32
2023-04-09T08:12:07.149Z,63.78
2023-04-09T08:14:39.780Z,68.60
2023-04-09T08:17:12.433Z,69.77
2023-04-09T08:19:45.162Z,70.34
2023-04-09T08:22:19.448Z,68.65
2023-04-09T08:24:53.332Z,71.03
2023-04-09T08:27:26.381Z,73.15
2023-04-09T08:29:59.066Z,72.89
2023-04-09T08:32:31.858Z,71.66
2023-04-09T08:35:04.696Z,70.28
2023-04-09T08:37:39.656Z,67.55
2023-04-09T08:40:12.823Z,72.14
2023-04-09T08:42:46.539Z,70.63
2023-04-09T08:45:19.412Z,73.04
2023-04-09T08:47:52.930Z,71.82
2023-04-09T08:50:25.794Z,72.04
2023-04-09T08:53:00.439Z,68.95
2023-04-09T08:55:34.786Z,68.90
2023-04-09T08:58:09.526Z,72.40
2023-04-09T09:00:42.190Z,73.41
2023-04-09T09:03:14.916Z,73.48
2023-04-09T09:05:47.715Z,73.97
2023-04-09T09:08:26.268Z,69.76
2023-04-09T09:10:58.958Z,73.54
2023-04-09T09:13:31.574Z,74.50
2023-04-09T09:16:13.619Z,74.38
2023-04-09T09:18:46.363Z,73.74
2023-04-09T09:21:19.614Z,73.88
2023-04-09T09:23:53.816Z,72.41
2023-04-09T09:26:27.490Z,71.37
2023-04-09T09:29:01.705Z,71.54
2023-04-09T09:31:47.280Z,71.12
2023-04-09T09:34:20.563Z,71.37
2023-04-09T09:36:53.315Z,72.91
2023-04-09T09:39:43.620Z,69.21
2023-04-09T09:42:16.406Z,72.04
2023-04-09T09:44:49.258Z,71.12
2023-04-09T09:47:22.785Z,70.87
2023-04-09T09:49:55.897Z,70.25
2023-04-09T09:52:28.628Z,68.41
2023-04-09T09:55:05.985Z,72.15
2023-04-09T09:57:40.779Z,72.40
2023-04-09T10:00:14.341Z,66.78
2023-04-09T10:02:50.174Z,70.89
2023-04-09T10:05:26.966Z,70.79
2023-04-09T10:08:00.856Z,69.44
2023-04-09T10:10:35.211Z,71.55
2023-04-09T10:13:08.347Z,73.31
2023-04-09T10:15:43.280Z,71.14
2023-04-09T10:18:17.715Z,70.96
2023-04-09T10:20:52.139Z,64.41
2023-04-09T10:23:32.348Z,71.28
2023-04-09T10:26:06.520Z,74.84
2023-04-09T10:28:39.511Z,75.47
2023-04-09T10:31:12.413Z,64.79
2023-04-09T10:33:46.055Z,71.14
2023-04-09T10:36:22.509Z,69.74
2023-04-09T10:38:55.265Z,72.82
2023-04-09T10:41:30.850Z,66.53
2023-04-09T10:44:07.300Z,67.07
2023-04-09T10:46:43.070Z,71.62
2023-04-09T10:49:17.741Z,71.69
2023-04-09T10:51:53.130Z,73.63
2023-04-09T10:54:46.133Z,72.83
2023-04-09T10:57:22.023Z,74.28
2023-04-09T10:59:55.206Z,70.93
2023-04-09T11:02:46.817Z,73.95
2023-04-09T11:05:20.960Z,73.84
2023-04-09T11:07:54.881Z,71.88
2023-04-09T11:10:28.490Z,74.04
2023-04-09T11:13:03.004Z,74.60
2023-04-09T11:15:36.459Z,74.35
2023-04-09T11:18:10.053Z,73.74
2023-04-09T11:20:42.848Z,73.86
2023-04-09T11:23:16.539Z,75.19
2023-04-09T11:25:50.007Z,73.48
2023-04-09T11:28:24.331Z,74.02
2023-04-09T11:30:57.067Z,73.75
2023-04-09T11:33:33.237Z,73.15
2023-04-09T11:36:06.869Z,73.46
2023-04-09T11:38:39.720Z,71.67
2023-04-09T11:41:13.655Z,72.73
2023-04-09T11:43:47.918Z,72.54
2023-04-09T11:46:26.151Z,72.29
2023-04-09T11:48:58.882Z,72.11
2023-04-09T11:51:32.768Z,70.80
2023-04-09T11:54:06.508Z,72.21
2023-04-09T11:56:39.242Z,69.10
2023-04-09T11:59:15.450Z,71.34
2023-04-09T12:01:50.955Z,71.28
2023-04-09T12:04:23.706Z,61.49
2023-04-09T12:06:59.227Z,67.53
2023-04-09T12:09:32.007Z,72.01
2023-04-09T12:12:09.070Z,71.50
2023-04-09T12:14:46.785Z,72.33
2023-04-09T12:17:21.867Z,72.16
2023-04-09T12:19:54.704Z,73.90
2023-04-09T12:22:27.851Z,69.53
2023-04-09T12:25:00.556Z,70.56
2023-04-09T12:27:34.002Z,64.88
2023-04-09T12:30:11.083Z,71.23
2023-04-09T12:32:44.868Z,74.58
2023-04-09T12:35:17.605Z,68.76
2023-04-09T12:37:50.857Z,73.35
2023-04-09T12:40:23.845Z,73.87
2023-04-09T12:42:56.614Z,73.85
2023-04-09T12:45:30.979Z,72.87
2023-04-09T12:48:03.751Z,73.12
2023-04-09T12:50:36.555Z,74.64
2023-04-09T12:53:09.232Z,72.49
2023-04-09T12:55:42.953Z,66.24
2023-04-09T12:58:15.784Z,72.16
2023-04-09T13:00:49.828Z,71.18
2023-04-09T13:03:23.017Z,73.15
2023-04-09T13:05:56.037Z,72.30
2023-04-09T13:08:28.835Z,71.97
2023-04-09T13:11:01.421Z,71.09
2023-04-09T13:13:34.755Z,71.92
2023-04-09T13:16:09.286Z,71.97
2023-04-09T13:18:41.912Z,70.59
2023-04-09T13:21:18.669Z,66.68
2023-04-09T13:23:51.494Z,66.91
2023-04-09T13:26:24.208Z,66.04
2023-04-09T13:28:56.869Z,70.99
2023-04-09T13:31:31.159Z,69.81
2023-04-09T13:34:03.964Z,69.60
2023-04-09T13:36:36.653Z,70.21
2023-04-09T13:39:09.323Z,71.65
2023-04-09T13:41:41.969Z,71.24
2023-04-09T13:44:14.699Z,64.75
2023-04-09T13:46:48.754Z,70.35
2023-04-09T13:49:21.444Z,71.43
2023-04-09T13:51:55.719Z,71.92
2023-04-09T13:54:28.409Z,71.23
2023-04-09T13:57:01.080Z,71.74
2023-04-09T13:59:33.815Z,69.19
2023-04-09T14:02:08.126Z,70.04
2023-04-09T14:04:40.931Z,70.39
2023-04-09T14:07:13.652Z,70.96
2023-04-09T14:09:46.699Z,71.91
2023-04-09T14:12:19.973Z,71.37
2023-04-09T14:14:52.995Z,71.54
2023-04-09T14:17:27.638Z,72.51
2023-04-09T14:20:00.945Z,69.01
2023-04-09T14:22:33.641Z,68.32
2023-04-09T14:25:07.170Z,69.43
2023-04-09T14:27:39.803Z,68.04
2023-04-09T14:30:13.640Z,71.63
2023-04-09T14:32:47.742Z,69.39
2023-04-09T14:35:20.446Z,70.00
2023-04-09T14:37:53.046Z,72.66
2023-04-09T14:40:25.720Z,69.97
2023-04-09T14:42:58.405Z,69.50
2023-04-09T14:45:31.460Z,70.08
2023-04-09T14:48:05.924Z,71.97
2023-04-09T14:50:38.645Z,71.43
2023-04-09T14:53:12.441Z,71.39
2023-04-09T14:55:45.403Z,72.15
2023-04-09T14:58:18.092Z,69.24
2023-04-09T15:00:50.894Z,69.61
2023-04-09T15:03:25.182Z,68.09
2023-04-09T15:05:58.152Z,71.64
2023-04-09T15:08:30.983Z,72.34
2023-04-09T15:11:03.820Z,71.76
2023-04-09T15:13:36.433Z,72.31
2023-04-09T15:16:09.693Z,72.09
2023-04-09T15:18:43.765Z,69.22
2023-04-09T15:21:16.605Z,69.80
2023-04-09T15:23:51.113Z,65.28
2023-04-09T15:26:23.821Z,69.36
2023-04-09T15:29:02.306Z,71.35
2023-04-09T15:31:35.450Z,72.24
2023-04-09T15:34:09.608Z,70.33
2023-04-09T15:36:42.317Z,70.68
2023-04-09T15:39:14.985Z,71.79
2023-04-09T15:41:47.641Z,70.84
2023-04-09T15:44:20.265Z,70.74
2023-04-09T15:46:52.913Z,71.29
2023-04-09T15:49:26.970Z,70.27
2023-04-09T15:51:59.708Z,67.90
2023-04-09T15:54:32.406Z,68.73
2023-04-09T15:57:05.373Z,69.36
2023-04-09T15:59:38.015Z,71.26
2023-04-09T16:02:10.981Z,70.73
2023-04-09T16:04:45.376Z,69.54
2023-04-09T16:07:18.183Z,69.12
2023-04-09T16:09:50.946Z,66.64
2023-04-09T16:12:24.911Z,69.71
2023-04-09T16:14:57.644Z,70.86
2023-04-09T16:17:30.887Z,69.38
2023-04-09T16:20:05.586Z,68.63
2023-04-09T16:22:38.438Z,68.34
2023-04-09T16:25:11.208Z,70.24
2023-04-09T16:27:43.890Z,71.02
2023-04-09T16:30:16.773Z,71.11
2023-04-09T16:32:49.645Z,71.82
2023-04-09T16:35:23.886Z,71.62
2023-04-09T16:37:56.836Z,71.94
2023-04-09T16:40:29.496Z,71.91
2023-04-09T16:43:02.379Z,71.72
2023-04-09T16:45:35.105Z,72.41
2023-04-09T16:48:12.330Z,70.67
2023-04-09T16:50:46.875Z,71.29
2023-04-09T16:55:52.744Z,70.46
2023-04-09T16:58:25.690Z,70.00
2023-04-09T17:00:59.278Z,69.19
2023-04-09T17:03:32.096Z,70.92
2023-04-09T17:06:06.738Z,71.64
2023-04-09T17:08:39.398Z,71.90
2023-04-09T17:11:15.531Z,71.05
2023-04-09T17:13:48.332Z,68.85
2023-04-09T17:16:21.385Z,69.06
2023-04-09T17:18:54.222Z,70.19
2023-04-09T17:21:28.452Z,69.58
2023-04-09T17:24:02.832Z,69.40
2023-04-09T17:26:35.522Z,71.29
2023-04-09T17:29:08.185Z,70.16
2023-04-09T17:31:41.151Z,68.43
2023-04-09T17:34:16.283Z,66.59
2023-04-09T17:36:56.420Z,68.04
2023-04-09T17:39:29.583Z,68.06
2023-04-09T17:42:03.425Z,67.85
2023-04-09T17:44:36.415Z,67.60
2023-04-09T17:47:09.086Z,66.85
2023-04-09T17:49:41.973Z,67.00
2023-04-09T17:52:16.431Z,67.87
2023-04-09T17:54:50.979Z,67.75
2023-04-09T17:57:23.589Z,67.03
2023-04-09T17:59:56.262Z,68.09
2023-04-09T18:02:29.180Z,67.76
2023-04-09T18:05:02.645Z,67.20
2023-04-09T18:07:37.334Z,67.12
2023-04-09T18:10:10.846Z,67.97
2023-04-09T18:12:43.502Z,67.50
2023-04-09T18:15:16.755Z,67.63
2023-04-09T18:17:49.591Z,66.85
2023-04-09T18:20:22.461Z,67.79
2023-04-09T18:22:57.063Z,67.44
2023-04-09T18:25:29.951Z,67.64
2023-04-09T18:28:02.615Z,67.04
2023-04-09T18:30:36.324Z,67.40
2023-04-09T18:33:09.061Z,67.13
2023-04-09T18:35:41.785Z,66.67
2023-04-09T18:38:15.881Z,67.62
2023-04-09T18:40:48.555Z,67.31
2023-04-09T18:43:21.262Z,67.54
2023-04-09T18:45:53.950Z,67.32
2023-04-09T18:48:26.924Z,67.40
2023-04-09T18:51:01.825Z,67.06
2023-04-09T18:53:35.973Z,67.14
2023-04-09T18:56:08.665Z,67.46
2023-04-09T18:58:41.270Z,67.28
2023-04-09T19:01:14.032Z,67.21
2023-04-09T19:03:47.756Z,67.47
2023-04-09T19:06:20.994Z,67.68
2023-04-09T19:08:58.248Z,67.42
2023-04-09T19:11:31.060Z,67.49
2023-04-09T19:14:04.140Z,67.67
2023-04-09T19:16:37.177Z,67.64
2023-04-09T19:19:09.963Z,68.05
2023-04-09T19:21:42.613Z,67.48
2023-04-09T19:24:16.753Z,67.62
2023-04-09T19:26:50.909Z,67.93
2023-04-09T19:29:23.612Z,67.96
2023-04-09T19:31:57.289Z,68.04
2023-04-09T19:34:30.059Z,68.18
2023-04-09T19:37:03.013Z,68.10
2023-04-09T19:39:37.013Z,68.37
2023-04-09T19:42:09.760Z,68.15
2023-04-09T19:44:42.465Z,68.05
2023-04-09T19:47:15.178Z,68.32
2023-04-09T19:49:48.157Z,68.46
2023-04-09T19:52:20.943Z,68.45
2023-04-09T19:54:58.239Z,68.48
2023-04-09T19:57:31.865Z,68.57
2023-04-09T20:00:05.625Z,68.51
2023-04-09T20:02:39.546Z,68.63
2023-04-09T20:05:12.904Z,68.71
2023-04-09T20:07:45.642Z,68.71
2023-04-09T20:10:19.855Z,68.81
2023-04-09T20:12:53.133Z,68.84
2023-04-09T20:15:26.314Z,68.76
2023-04-09T20:17:59.059Z,68.90
2023-04-09T20:20:31.947Z,68.79
2023-04-09T20:23:04.958Z,68.85
2023-04-09T20:25:39.058Z,68.50
2023-04-09T20:28:11.695Z,68.73
2023-04-09T20:30:44.706Z,68.40
2023-04-09T20:33:17.431Z,68.30
2023-04-09T20:35:50.489Z,68.48
2023-04-09T20:38:23.308Z,68.47
2023-04-09T20:40:57.601Z,68.43
2023-04-09T20:43:30.615Z,68.56
2023-04-09T20:46:03.288Z,68.53
2023-04-09T20:48:35.958Z,68.54
2023-04-09T20:51:09.730Z,69.24
2023-04-09T20:53:42.822Z,69.23
2023-04-09T20:56:17.524Z,68.76
2023-04-09T20:58:50.270Z,68.81
2023-04-09T21:01:23.353Z,69.40
2023-04-09T21:03:57.113Z,69.13
2023-04-09T21:06:29.863Z,69.38
2023-04-09T21:09:04.808Z,69.33
2023-04-09T21:11:38.890Z,69.60
2023-04-09T21:14:13.582Z,69.53
2023-04-09T21:16:46.703Z,69.55
2023-04-09T21:19:19.595Z,69.35
2023-04-09T21:21:52.368Z,69.02
2023-04-09T21:24:25.086Z,69.53
2023-04-09T21:26:59.094Z,69.43
2023-04-09T21:29:31.764Z,68.78
2023-04-09T21:32:04.583Z,69.01
2023-04-09T21:34:39.561Z,69.18
2023-04-09T21:37:12.244Z,68.96
2023-04-09T21:39:44.935Z,69.13
2023-04-09T21:42:19.007Z,69.57
2023-04-09T21:44:51.638Z,69.42
2023-04-09T21:47:24.751Z,68.88
2023-04-09T21:49:57.692Z,69.60
2023-04-09T21:52:30.355Z,68.86
2023-04-09T21:55:03.678Z,69.30
2023-04-09T21:57:37.737Z,69.17
2023-04-09T22:00:11.435Z,69.16
2023-04-09T22:02:44.188Z,69.05
2023-04-09T22:05:17.088Z,69.65
2023-04-09T22:07:49.724Z,69.60
2023-04-09T22:10:22.782Z,69.19
2023-04-09T22:12:56.980Z,69.36
2023-04-09T22:15:29.730Z,69.15
2023-04-09T22:18:02.793Z,69.18
2023-04-09T22:20:36.886Z,69.52
2023-04-09T22:23:09.776Z,69.53
2023-04-09T22:25:42.437Z,69.08
2023-04-09T22:28:16.446Z,69.14
2023-04-09T22:30:49.378Z,69.68
2023-04-09T22:33:22.091Z,68.94
2023-04-09T22:35:54.948Z,69.24
2023-04-09T22:38:27.709Z,69.72
2023-04-09T22:41:01.580Z,69.60
2023-04-09T22:43:36.252Z,69.61
2023-04-09T22:46:09.159Z,69.56
2023-04-09T22:48:45.020Z,69.48
2023-04-09T22:51:17.910Z,69.74
2023-04-09T22:53:50.551Z,69.62
2023-04-09T22:56:23.483Z,69.46
2023-04-09T22:58:57.565Z,69.83
2023-04-09T23:01:31.629Z,69.49
2023-04-09T23:04:04.393Z,69.82
2023-04-09T23:06:37.790Z,69.41
2023-04-09T23:09:10.444Z,69.17
2023-04-09T23:11:43.151Z,69.72
2023-04-09T23:14:17.393Z,69.38
2023-04-09T23:16:50.055Z,69.78
2023-04-09T23:19:22.693Z,69.75
2023-04-09T23:21:55.841Z,69.41
2023-04-09T23:24:28.474Z,69.24
2023-04-09T23:27:01.193Z,69.32
2023-04-09T23:29:35.313Z,69.28
2023-04-09T23:32:08.038Z,69.35
2023-04-09T23:34:40.636Z,69.32
2023-04-09T23:37:13.454Z,69.81
2023-04-09T23:39:47.409Z,69.60
2023-04-09T23:42:20.131Z,69.44
2023-04-09T23:44:54.263Z,69.47
2023-04-09T23:47:27.429Z,69.78
2023-04-09T23:50:00.321Z,69.39
2023-04-09T23:52:33.789Z,69.79
2023-04-09T23:55:08.937Z,69.89
2023-04-09T23:57:42.613Z,69.55
